Main page
METAR-TAF:

METAR-TAF

Airports :

DeKalb Taylor Municipal Airport

DeKalb, Illinois, United States

latitude: 41-55-55N, longitude: 088-42-30W, elevation: 915 ft

Current weather observation

The report was made 17 minutes ago, at 20:15 UTC
Calm wind
Temperature 23°F
Humidity 73%
Pressure 30.08 in. Hg
Visibility: 10 miles
Clear sky

METAR: KDKB 152015Z AUTO 00000KT 10SM CLR M05/M09 A3008 RMK AO2 T10481090

Time: 14:32 (20:32 UTC)


TAF: missing

Weather observations and forecasts of more than 4000 airports (METAR and TAF reports).

The available stations are represented by yellow and red dots on the map.

Hover mouse over dot to see the name of the station.

Then click to see weather observations and forecasts.

To change the map : click on the green buttons with a black cross to zoom in, on the green button with a dash to zoom out, or on the green arrows for adjacent maps.


METAR-TAF: